createdAt,value
2023-02-21T00:00:07.957Z,100112.97
2023-02-21T00:00:25.644Z,100115.44
2023-02-21T00:00:38.465Z,100108.31
2023-02-21T00:00:53.805Z,100112.63
2023-02-21T00:01:06.215Z,100121.09
2023-02-21T00:01:19.112Z,100113.94
2023-02-21T00:01:34.919Z,100102.66
2023-02-21T00:01:47.133Z,100110.75
2023-02-21T00:01:59.325Z,100114.06
2023-02-21T00:02:12.946Z,100114.50
2023-02-21T00:02:27.786Z,100106.53
2023-02-21T00:02:42.453Z,100104.72
2023-02-21T00:02:54.692Z,100104.72
2023-02-21T00:03:07.043Z,100105.34
2023-02-21T00:03:19.157Z,100110.66
2023-02-21T00:03:33.965Z,100108.63
2023-02-21T00:03:48.873Z,100100.22
2023-02-21T00:04:02.905Z,100111.97
2023-02-21T00:04:15.098Z,100116.09
2023-02-21T00:04:27.882Z,100107.75
2023-02-21T00:04:40.733Z,100114.72
2023-02-21T00:04:52.803Z,100110.59
2023-02-21T00:05:05.700Z,100111.06
2023-02-21T00:05:19.017Z,100110.88
2023-02-21T00:05:31.314Z,100103.72
2023-02-21T00:05:44.424Z,100101.69
2023-02-21T00:05:56.802Z,100101.53
2023-02-21T00:06:10.210Z,100096.03
2023-02-21T00:06:22.825Z,100105.00
2023-02-21T00:06:37.789Z,100099.50
2023-02-21T00:06:50.059Z,100106.47
2023-02-21T00:07:02.824Z,100107.13
2023-02-21T00:07:15.710Z,100100.16
2023-02-21T00:07:27.714Z,100101.78
2023-02-21T00:07:42.509Z,100106.13
2023-02-21T00:07:56.229Z,100114.75
2023-02-21T00:08:08.647Z,100098.47
2023-02-21T00:08:21.249Z,100096.84
2023-02-21T00:08:33.847Z,100113.56
2023-02-21T00:08:46.802Z,100101.06
2023-02-21T00:08:59.088Z,100106.56
2023-02-21T00:09:14.079Z,100109.88
2023-02-21T00:09:28.995Z,100103.75
2023-02-21T00:09:44.916Z,100111.34
2023-02-21T00:09:57.670Z,100110.00
2023-02-21T00:10:13.896Z,100104.88
2023-02-21T00:10:28.796Z,100101.00
2023-02-21T00:10:41.157Z,100102.19
2023-02-21T00:10:53.611Z,100106.34
2023-02-21T00:11:06.302Z,100102.66
2023-02-21T00:11:19.249Z,100109.00
2023-02-21T00:11:31.750Z,100107.97
2023-02-21T00:11:44.956Z,100099.16
2023-02-21T00:11:57.925Z,100113.94
2023-02-21T00:12:12.199Z,100109.25
2023-02-21T00:12:25.655Z,100105.31
2023-02-21T00:12:40.712Z,100114.41
2023-02-21T00:12:53.629Z,100100.72
2023-02-21T00:13:06.562Z,100104.22
2023-02-21T00:13:18.970Z,100099.91
2023-02-21T00:13:38.719Z,100100.56
2023-02-21T00:13:51.629Z,100100.56
2023-02-21T00:14:04.067Z,100103.88
2023-02-21T00:14:41.905Z,100100.19
2023-02-21T00:14:59.189Z,100108.25
2023-02-21T00:15:14.589Z,100107.44
2023-02-21T00:15:27.220Z,100107.44
2023-02-21T00:15:39.891Z,100112.78
2023-02-21T00:15:53.734Z,100112.78
2023-02-21T00:16:08.081Z,100113.59
2023-02-21T00:16:20.640Z,100104.78
2023-02-21T00:16:33.124Z,100103.09
2023-02-21T00:16:51.336Z,100094.28
2023-02-21T00:17:04.526Z,100103.09
2023-02-21T00:17:21.730Z,100098.97
2023-02-21T00:17:34.454Z,100092.56
2023-02-21T00:17:48.148Z,100103.47
2023-02-21T00:18:01.724Z,100094.03
2023-02-21T00:18:17.748Z,100103.47
2023-02-21T00:18:34.351Z,100098.34
2023-02-21T00:18:47.027Z,100100.19
2023-02-21T00:19:01.956Z,100101.38
2023-02-21T00:19:14.798Z,100103.00
2023-02-21T00:19:28.760Z,100102.19
2023-02-21T00:19:41.734Z,100097.88
2023-02-21T00:19:53.988Z,100097.03
2023-02-21T00:20:08.170Z,100092.25
2023-02-21T00:20:21.523Z,100107.03
2023-02-21T00:20:34.059Z,100106.44
2023-02-21T00:20:45.989Z,100098.63
2023-02-21T00:21:05.698Z,100100.47
2023-02-21T00:21:17.670Z,100102.09
2023-02-21T00:21:30.713Z,100107.44
2023-02-21T00:21:43.536Z,100100.81
2023-02-21T00:21:55.565Z,100112.91
2023-02-21T00:22:09.495Z,100112.91
2023-02-21T00:22:22.996Z,100108.44
2023-02-21T00:22:38.149Z,100100.63
2023-02-21T00:22:50.623Z,100102.28
2023-02-21T00:23:05.423Z,100097.31
2023-02-21T00:23:17.597Z,100108.63
2023-02-21T00:23:34.048Z,100104.50
2023-02-21T00:23:46.708Z,100104.13
2023-02-21T00:23:59.404Z,100106.78
2023-02-21T00:24:13.918Z,100099.81
2023-02-21T00:24:26.826Z,100103.28
2023-02-21T00:24:39.008Z,100107.81
2023-02-21T00:24:51.285Z,100107.44
2023-02-21T00:25:03.170Z,100103.94
2023-02-21T00:25:16.399Z,100111.75
2023-02-21T00:25:29.336Z,100106.44
2023-02-21T00:25:41.661Z,100108.06
2023-02-21T00:25:55.649Z,100101.94
2023-02-21T00:26:07.708Z,100108.88
2023-02-21T00:26:20.137Z,100099.06
2023-02-21T00:26:35.386Z,100101.09
2023-02-21T00:26:49.476Z,100104.38
2023-02-21T00:27:02.685Z,100107.25
2023-02-21T00:27:17.509Z,100102.75
2023-02-21T00:27:33.781Z,100103.78
2023-02-21T00:27:47.500Z,100104.59
2023-02-21T00:28:01.957Z,100106.06
2023-02-21T00:28:16.190Z,100104.22
2023-02-21T00:28:32.152Z,100109.53
2023-02-21T00:28:44.247Z,100104.84
2023-02-21T00:28:57.020Z,100102.03
2023-02-21T00:29:12.567Z,100118.00
2023-02-21T00:29:27.508Z,100103.00
2023-02-21T00:29:42.317Z,100114.31
2023-02-21T00:29:54.642Z,100115.34
2023-02-21T00:30:08.612Z,100111.00
2023-02-21T00:30:21.282Z,100108.16
2023-02-21T00:30:35.171Z,100106.69
2023-02-21T00:30:50.950Z,100107.34
2023-02-21T00:31:06.372Z,100111.00
2023-02-21T00:31:19.452Z,100109.38
2023-02-21T00:31:31.897Z,100110.84
2023-02-21T00:31:44.730Z,100105.50
2023-02-21T00:31:57.520Z,100107.53
2023-02-21T00:32:13.035Z,100116.16
2023-02-21T00:32:26.195Z,100104.69
2023-02-21T00:32:38.817Z,100106.53
2023-02-21T00:32:55.811Z,100101.00
2023-02-21T00:33:10.117Z,100104.47
2023-02-21T00:33:24.363Z,100105.50
2023-02-21T00:33:39.212Z,100106.31
2023-02-21T00:33:53.797Z,100107.34
2023-02-21T00:34:09.470Z,100107.13
2023-02-21T00:34:23.022Z,100114.97
2023-02-21T00:34:37.213Z,100110.44
2023-02-21T00:34:50.841Z,100108.81
2023-02-21T00:35:03.650Z,100112.94
2023-02-21T00:35:16.402Z,100107.63
2023-02-21T00:35:29.382Z,100104.94
2023-02-21T00:35:42.144Z,100118.91
2023-02-21T00:35:54.638Z,100114.59
2023-02-21T00:36:08.051Z,100112.56
2023-02-21T00:36:21.317Z,100109.91
2023-02-21T00:36:33.230Z,100109.91
2023-02-21T00:36:46.074Z,100108.09
2023-02-21T00:36:59.108Z,100106.88
2023-02-21T00:37:11.715Z,100108.53
2023-02-21T00:37:28.058Z,100123.31
2023-02-21T00:37:42.103Z,100122.31
2023-02-21T00:37:55.452Z,100122.97
2023-02-21T00:38:08.706Z,100121.94
2023-02-21T00:38:26.736Z,100111.47
2023-02-21T00:38:39.194Z,100109.66
2023-02-21T00:38:51.801Z,100111.13
2023-02-21T00:39:04.186Z,100110.25
2023-02-21T00:39:16.770Z,100109.44
2023-02-21T00:39:28.965Z,100117.25
2023-02-21T00:39:43.634Z,100110.47
2023-02-21T00:39:56.186Z,100110.47
2023-02-21T00:40:12.104Z,100111.47
2023-02-21T00:40:25.758Z,100114.34
2023-02-21T00:40:38.671Z,100109.00
2023-02-21T00:40:50.609Z,100116.78
2023-02-21T00:41:03.314Z,100110.00
2023-02-21T00:41:15.755Z,100114.34
2023-02-21T00:41:31.507Z,100105.69
2023-02-21T00:41:44.085Z,100104.03
2023-02-21T00:41:56.950Z,100103.19
2023-02-21T00:42:10.616Z,100110.38
2023-02-21T00:42:23.574Z,100113.84
2023-02-21T00:42:38.001Z,100113.03
2023-02-21T00:42:51.092Z,100106.03
2023-02-21T00:43:03.856Z,100105.59
2023-02-21T00:43:19.255Z,100108.91
2023-02-21T00:43:33.771Z,100106.41
2023-02-21T00:43:49.482Z,100109.09
2023-02-21T00:44:02.883Z,100102.28
2023-02-21T00:44:15.725Z,100103.75
2023-02-21T00:44:28.731Z,100099.63
2023-02-21T00:44:42.603Z,100108.09
2023-02-21T00:44:55.026Z,100101.09
2023-02-21T00:45:08.120Z,100102.94
2023-02-21T00:45:20.731Z,100109.09
2023-02-21T00:45:34.588Z,100112.78
2023-02-21T00:45:51.508Z,100105.59
2023-02-21T00:46:04.390Z,100102.47
2023-02-21T00:46:16.590Z,100106.78
2023-02-21T00:46:34.978Z,100111.31
2023-02-21T00:46:46.984Z,100107.63
2023-02-21T00:46:59.677Z,100109.25
2023-02-21T00:47:14.089Z,100104.31
2023-02-21T00:47:29.316Z,100101.47
2023-02-21T00:47:42.463Z,100106.16
2023-02-21T00:47:59.468Z,100109.81
2023-02-21T00:48:11.937Z,100100.19
2023-02-21T00:48:24.638Z,100100.19
2023-02-21T00:48:38.972Z,100106.31
2023-02-21T00:48:51.520Z,100100.34
2023-02-21T00:49:06.363Z,100097.69
2023-02-21T00:49:18.936Z,100093.56
2023-02-21T00:49:31.905Z,100102.19
2023-02-21T00:49:45.758Z,100093.38
2023-02-21T00:49:58.790Z,100103.22
2023-02-21T00:50:12.003Z,100111.84
2023-02-21T00:50:24.631Z,100101.53
2023-02-21T00:50:39.491Z,100101.19
2023-02-21T00:50:56.186Z,100107.34
2023-02-21T00:51:08.405Z,100105.69
2023-02-21T00:51:20.420Z,100105.88
2023-02-21T00:51:34.977Z,100102.19
2023-02-21T00:51:50.143Z,100108.16
2023-02-21T00:52:05.088Z,100100.00
2023-02-21T00:52:17.170Z,100101.00
2023-02-21T00:52:32.654Z,100100.81
2023-02-21T00:52:46.854Z,100096.97
2023-02-21T00:53:00.922Z,100108.44
2023-02-21T00:53:15.687Z,100103.94
2023-02-21T00:53:30.094Z,100098.59
2023-02-21T00:53:45.091Z,100104.94
2023-02-21T00:53:57.668Z,100100.44
2023-02-21T00:54:10.442Z,100103.09
2023-02-21T00:54:23.008Z,100111.09
2023-02-21T00:54:36.757Z,100097.78
2023-02-21T00:54:50.880Z,100098.44
2023-02-21T00:55:03.331Z,100103.59
2023-02-21T00:55:16.447Z,100104.41
2023-02-21T00:55:28.780Z,100094.78
2023-02-21T00:55:41.060Z,100099.72
2023-02-21T00:55:55.100Z,100099.53
2023-02-21T00:56:07.644Z,100100.38
2023-02-21T00:56:21.708Z,100095.69
2023-02-21T00:56:35.772Z,100106.34
2023-02-21T00:56:48.359Z,100097.31
2023-02-21T00:57:02.592Z,100099.97
2023-02-21T00:57:15.042Z,100105.31
2023-02-21T00:57:27.828Z,100096.50
2023-02-21T00:57:42.228Z,100100.63
2023-02-21T00:57:57.411Z,100103.69
2023-02-21T00:58:11.877Z,100098.13
2023-02-21T00:58:25.171Z,100093.00
2023-02-21T00:58:38.577Z,100097.50
2023-02-21T00:58:51.181Z,100092.00
2023-02-21T00:59:03.480Z,100097.16
2023-02-21T00:59:16.231Z,100099.00
2023-02-21T00:59:29.261Z,100103.47
2023-02-21T00:59:43.801Z,100089.31
2023-02-21T00:59:56.220Z,100085.66
2023-02-21T01:00:14.684Z,100088.69
2023-02-21T01:00:26.664Z,100084.81
2023-02-21T01:00:39.863Z,100079.69
2023-02-21T01:00:52.642Z,100088.50
2023-02-21T01:01:04.912Z,100087.47
2023-02-21T01:01:17.873Z,100083.00
2023-02-21T01:01:30.948Z,100083.63
2023-02-21T01:01:45.049Z,100084.47
2023-02-21T01:02:01.794Z,100085.47
2023-02-21T01:02:15.073Z,100086.47
2023-02-21T01:02:27.593Z,100087.47
2023-02-21T01:02:40.751Z,100083.19
2023-02-21T01:02:53.957Z,100090.16
2023-02-21T01:03:10.873Z,100083.19
2023-02-21T01:03:25.995Z,100084.81
2023-02-21T01:03:38.120Z,100088.34
2023-02-21T01:03:50.969Z,100091.59
2023-02-21T01:04:05.266Z,100085.66
2023-02-21T01:04:17.861Z,100083.63
2023-02-21T01:04:31.804Z,100091.44
2023-02-21T01:04:44.103Z,100089.59
2023-02-21T01:04:58.958Z,100079.78
2023-02-21T01:05:11.543Z,100087.56
2023-02-21T01:05:23.823Z,100085.75
2023-02-21T01:05:36.942Z,100089.41
2023-02-21T01:05:49.214Z,100087.78
2023-02-21T01:06:02.062Z,100093.91
2023-02-21T01:06:14.944Z,100085.94
2023-02-21T01:06:30.731Z,100091.91
2023-02-21T01:06:43.836Z,100083.69
2023-02-21T01:06:55.877Z,100087.00
2023-02-21T01:07:09.732Z,100086.19
2023-02-21T01:07:24.860Z,100087.88
2023-02-21T01:07:37.256Z,100088.03
2023-02-21T01:07:53.899Z,100090.69
2023-02-21T01:08:07.588Z,100092.34
2023-02-21T01:08:22.512Z,100083.53
2023-02-21T01:08:35.714Z,100079.22
2023-02-21T01:08:48.106Z,100095.22
2023-02-21T01:09:01.989Z,100090.06
2023-02-21T01:09:14.309Z,100081.88
2023-02-21T01:09:27.398Z,100091.53
2023-02-21T01:09:40.004Z,100088.69
2023-02-21T01:09:52.502Z,100089.69
2023-02-21T01:10:05.964Z,100090.69
2023-02-21T01:10:26.563Z,100085.81
2023-02-21T01:10:43.326Z,100088.69
2023-02-21T01:10:56.686Z,100083.16
2023-02-21T01:11:15.266Z,100083.53
2023-02-21T01:11:29.375Z,100092.16
2023-02-21T01:11:41.884Z,100089.50
2023-02-21T01:11:55.543Z,100086.84
2023-02-21T01:12:08.100Z,100081.69
2023-02-21T01:12:22.591Z,100080.84
2023-02-21T01:12:36.776Z,100087.22
2023-02-21T01:12:49.349Z,100083.53
2023-02-21T01:13:04.099Z,100083.53
2023-02-21T01:13:16.305Z,100084.56
2023-02-21T01:13:28.477Z,100085.56
2023-02-21T01:13:40.726Z,100081.88
2023-02-21T01:13:53.026Z,100075.91
2023-02-21T01:14:06.686Z,100078.75
2023-02-21T01:14:19.584Z,100080.78
2023-02-21T01:14:33.026Z,100078.50
2023-02-21T01:14:45.446Z,100086.75
2023-02-21T01:14:57.433Z,100084.09
2023-02-21T01:15:11.552Z,100082.44
2023-02-21T01:15:23.934Z,100080.78
2023-02-21T01:15:38.834Z,100086.91
2023-02-21T01:15:51.604Z,100086.91
2023-02-21T01:16:07.186Z,100087.94
2023-02-21T01:16:21.776Z,100088.94
2023-02-21T01:16:34.684Z,100083.44
2023-02-21T01:16:47.837Z,100085.28
2023-02-21T01:17:11.558Z,100077.84
2023-02-21T01:17:27.798Z,100086.28
2023-02-21T01:17:42.195Z,100084.47
2023-02-21T01:17:54.609Z,100085.66
2023-02-21T01:18:11.177Z,100087.31
2023-02-21T01:18:23.601Z,100089.78
2023-02-21T01:18:35.642Z,100074.38
2023-02-21T01:18:50.980Z,100082.78
2023-02-21T01:19:03.018Z,100082.78
2023-02-21T01:19:17.863Z,100077.47
2023-02-21T01:19:31.577Z,100091.81
2023-02-21T01:19:44.229Z,100079.69
2023-02-21T01:20:04.913Z,100083.00
2023-02-21T01:20:20.051Z,100087.69
2023-02-21T01:20:33.879Z,100089.50
2023-02-21T01:20:47.333Z,100085.38
2023-02-21T01:20:59.878Z,100089.72
2023-02-21T01:21:13.890Z,100088.88
2023-02-21T01:21:28.712Z,100087.22
2023-02-21T01:21:42.477Z,100084.72
2023-02-21T01:21:55.405Z,100081.72
2023-02-21T01:22:08.452Z,100086.41
2023-02-21T01:22:21.246Z,100083.72
2023-02-21T01:22:34.383Z,100090.06
2023-02-21T01:22:48.529Z,100084.94
2023-02-21T01:23:04.023Z,100083.91
2023-02-21T01:23:16.447Z,100083.25
2023-02-21T01:23:29.053Z,100083.47
2023-02-21T01:23:42.388Z,100087.78
2023-02-21T01:23:57.020Z,100081.34
2023-02-21T01:24:13.709Z,100085.28
2023-02-21T01:24:27.501Z,100086.31
2023-02-21T01:25:10.345Z,100085.84
2023-02-21T01:25:22.918Z,100078.88
2023-02-21T01:25:36.655Z,100082.56
2023-02-21T01:25:51.749Z,100086.03
2023-02-21T01:26:05.919Z,100078.22
2023-02-21T01:26:18.659Z,100078.22
2023-02-21T01:26:30.940Z,100077.22
2023-02-21T01:26:44.670Z,100088.69
2023-02-21T01:27:03.266Z,100079.88
2023-02-21T01:27:18.464Z,100082.56
2023-02-21T01:27:30.917Z,100087.03
2023-02-21T01:27:46.483Z,100084.38
2023-02-21T01:28:00.616Z,100086.03
2023-02-21T01:28:15.627Z,100077.75
2023-02-21T01:28:31.837Z,100078.22
2023-02-21T01:28:47.423Z,100083.53
2023-02-21T01:29:07.801Z,100082.72
2023-02-21T01:29:21.680Z,100083.94
2023-02-21T01:29:34.885Z,100084.75
2023-02-21T01:29:49.215Z,100083.94
2023-02-21T01:30:02.867Z,100082.91
2023-02-21T01:30:19.666Z,100087.41
2023-02-21T01:30:34.143Z,100081.91
2023-02-21T01:30:47.472Z,100082.91
2023-02-21T01:31:00.308Z,100083.72
2023-02-21T01:31:18.663Z,100092.75
2023-02-21T01:31:31.791Z,100079.41
2023-02-21T01:31:46.079Z,100084.75
2023-02-21T01:31:59.223Z,100080.63
2023-02-21T01:32:11.688Z,100083.06
2023-02-21T01:32:25.782Z,100085.94
2023-02-21T01:32:38.404Z,100079.16
2023-02-21T01:33:01.965Z,100080.16
2023-02-21T01:33:16.765Z,100081.59
2023-02-21T01:33:29.296Z,100087.13
2023-02-21T01:33:42.957Z,100085.28
2023-02-21T01:33:59.363Z,100086.94
2023-02-21T01:34:11.505Z,100082.81
2023-02-21T01:34:23.420Z,100084.47
2023-02-21T01:34:36.317Z,100081.16
2023-02-21T01:34:48.903Z,100087.13
2023-02-21T01:35:01.477Z,100088.34
2023-02-21T01:35:15.140Z,100087.31
2023-02-21T01:35:27.377Z,100087.31
2023-02-21T01:35:40.926Z,100082.16
2023-02-21T01:35:53.305Z,100080.53
2023-02-21T01:36:11.659Z,100079.06
2023-02-21T01:36:24.214Z,100084.38
2023-02-21T01:36:42.572Z,100095.03
2023-02-21T01:36:56.835Z,100089.88
2023-02-21T01:37:10.324Z,100079.22
2023-02-21T01:37:22.726Z,100090.91
2023-02-21T01:37:35.190Z,100088.03
2023-02-21T01:37:47.334Z,100091.53
2023-02-21T01:38:02.802Z,100086.41
2023-02-21T01:38:18.745Z,100085.38
2023-02-21T01:38:36.419Z,100090.06
2023-02-21T01:38:49.313Z,100085.75
2023-02-21T01:39:01.633Z,100085.75
2023-02-21T01:39:15.880Z,100090.06
2023-02-21T01:39:27.819Z,100079.59
2023-02-21T01:39:40.658Z,100079.59
2023-02-21T01:39:53.322Z,100081.88
2023-02-21T01:40:07.494Z,100087.22
2023-02-21T01:40:20.254Z,100088.88
2023-02-21T01:40:37.511Z,100093.38
2023-02-21T01:40:53.667Z,100089.06
2023-02-21T01:41:06.233Z,100090.69
2023-02-21T01:41:21.926Z,100095.69
2023-02-21T01:41:33.943Z,100092.38
2023-02-21T01:41:46.436Z,100085.75
2023-02-21T01:41:59.939Z,100092.53
2023-02-21T01:42:12.299Z,100094.22
2023-02-21T01:42:25.190Z,100080.78
2023-02-21T01:42:38.622Z,100092.53
2023-02-21T01:42:55.362Z,100097.50
2023-02-21T01:43:14.822Z,100085.38
2023-02-21T01:43:28.804Z,100091.53
2023-02-21T01:43:59.129Z,100086.78
2023-02-21T01:44:32.663Z,100087.75
2023-02-21T01:44:48.002Z,100085.91
2023-02-21T01:45:43.757Z,100076.47
2023-02-21T01:45:57.517Z,100080.78
2023-02-21T01:46:14.488Z,100077.19
2023-02-21T01:46:27.104Z,100093.09
2023-02-21T01:46:40.653Z,100082.44
2023-02-21T01:46:53.592Z,100079.78
2023-02-21T01:47:09.927Z,100081.63
2023-02-21T01:47:23.375Z,100075.28
2023-02-21T01:47:38.301Z,100079.59
2023-02-21T01:47:50.478Z,100076.72
2023-02-21T01:48:03.005Z,100086.56
2023-02-21T01:48:21.666Z,100077.59
2023-02-21T01:48:35.617Z,100088.03
2023-02-21T01:48:50.049Z,100086.84
2023-02-21T01:49:12.297Z,100081.06
2023-02-21T01:49:30.407Z,100078.22
2023-02-21T01:49:43.898Z,100082.72
2023-02-21T01:49:57.855Z,100081.88
2023-02-21T01:50:17.269Z,100080.03
2023-02-21T01:50:32.935Z,100072.25
2023-02-21T01:50:46.548Z,100070.41
2023-02-21T01:51:01.331Z,100064.63
2023-02-21T01:51:18.539Z,100069.78
2023-02-21T01:51:37.540Z,100071.41
2023-02-21T01:51:51.275Z,100070.59
2023-02-21T01:52:05.950Z,100068.75
2023-02-21T01:52:18.720Z,100074.28
2023-02-21T01:52:31.195Z,100060.13
2023-02-21T01:52:44.329Z,100067.94
2023-02-21T01:52:57.447Z,100067.75
2023-02-21T01:53:17.841Z,100068.56
2023-02-21T01:53:29.998Z,100070.41
2023-02-21T01:53:43.831Z,100063.41
2023-02-21T01:53:58.048Z,100062.44
2023-02-21T01:54:13.624Z,100057.28
2023-02-21T01:54:28.325Z,100056.06
2023-02-21T01:54:43.928Z,100063.25
2023-02-21T01:54:57.645Z,100063.25
2023-02-21T01:55:11.791Z,100062.25
2023-02-21T01:55:24.430Z,100063.06
2023-02-21T01:55:40.401Z,100061.41
2023-02-21T01:55:56.307Z,100068.56
2023-02-21T01:56:10.275Z,100051.31
2023-02-21T01:56:25.152Z,100059.94
2023-02-21T01:56:41.627Z,100062.59
2023-02-21T01:56:56.734Z,100057.28
2023-02-21T01:57:09.111Z,100067.09
2023-02-21T01:57:24.702Z,100059.94
2023-02-21T01:57:38.858Z,100060.75
2023-02-21T01:57:52.235Z,100043.53
2023-02-21T01:58:05.758Z,100048.63
2023-02-21T01:58:22.253Z,100061.78
2023-02-21T01:58:36.609Z,100052.88
2023-02-21T01:58:52.872Z,100062.16
2023-02-21T01:59:05.956Z,100064.63
2023-02-21T01:59:20.062Z,100060.13
2023-02-21T01:59:33.471Z,100048.47
2023-02-21T01:59:46.020Z,100054.81
2023-02-21T02:00:03.995Z,100048.47
2023-02-21T02:00:26.362Z,100051.94
2023-02-21T02:00:41.730Z,100050.97
2023-02-21T02:00:53.874Z,100052.78
2023-02-21T02:01:07.548Z,100060.75
2023-02-21T02:01:29.875Z,100056.47
2023-02-21T02:01:47.865Z,100058.09
2023-02-21T02:02:05.365Z,100054.06
2023-02-21T02:02:22.954Z,100054.06
2023-02-21T02:02:41.092Z,100064.91
2023-02-21T02:02:57.490Z,100056.56
2023-02-21T02:03:15.975Z,100046.72
2023-02-21T02:03:36.791Z,100049.50
2023-02-21T02:03:50.832Z,100060.69
2023-02-21T02:04:06.904Z,100055.34
2023-02-21T02:04:20.761Z,100057.84
2023-02-21T02:04:38.601Z,100055.81
2023-02-21T02:05:01.704Z,100053.78
2023-02-21T02:05:15.772Z,100058.75
2023-02-21T02:05:29.568Z,100055.06
2023-02-21T02:05:49.522Z,100058.38
2023-02-21T02:06:04.735Z,100055.53
2023-02-21T02:06:18.635Z,100066.19
2023-02-21T02:06:30.891Z,100062.50
2023-02-21T02:06:44.995Z,100048.19
2023-02-21T02:06:58.680Z,100051.84
2023-02-21T02:07:11.600Z,100061.31
2023-02-21T02:07:26.758Z,100048.44
2023-02-21T02:07:43.071Z,100048.44
2023-02-21T02:07:58.297Z,100054.44
2023-02-21T02:08:11.304Z,100050.72
2023-02-21T02:08:28.925Z,100048.53
2023-02-21T02:08:50.720Z,100048.72
2023-02-21T02:09:24.246Z,100054.31
2023-02-21T02:09:42.417Z,100043.84
2023-02-21T02:09:57.983Z,100047.97
2023-02-21T02:10:13.284Z,100049.44
2023-02-21T02:10:26.855Z,100058.06
2023-02-21T02:10:39.776Z,100052.38
2023-02-21T02:10:59.149Z,100048.88
2023-02-21T02:11:21.179Z,100055.03
2023-02-21T02:11:48.305Z,100052.00
2023-02-21T02:12:24.475Z,100050.16
2023-02-21T02:12:59.558Z,100051.81
2023-02-21T02:13:35.729Z,100057.13
2023-02-21T02:14:04.962Z,100057.78
2023-02-21T02:14:34.955Z,100050.59
2023-02-21T02:15:12.203Z,100052.91
2023-02-21T02:15:51.405Z,100045.09
2023-02-21T02:16:16.379Z,100048.78
2023-02-21T02:16:38.916Z,100055.13
2023-02-21T02:16:57.497Z,100062.94
2023-02-21T02:17:17.939Z,100040.72
2023-02-21T02:17:41.729Z,100066.41
2023-02-21T02:18:20.319Z,100060.44
2023-02-21T02:19:07.028Z,100066.81
2023-02-21T02:19:55.929Z,100066.81
2023-02-21T02:20:33.378Z,100060.00
2023-02-21T02:21:22.053Z,100054.22
2023-02-21T02:22:13.648Z,100068.00
2023-02-21T02:23:07.939Z,100058.53
2023-02-21T02:24:08.412Z,100056.50
2023-02-21T02:24:54.512Z,100066.06
2023-02-21T02:25:21.725Z,100062.13
2023-02-21T02:25:55.051Z,100058.38
2023-02-21T02:26:42.789Z,100057.53
2023-02-21T02:27:33.251Z,100055.72
2023-02-21T02:28:24.265Z,100062.69
2023-02-21T02:28:57.554Z,100054.84
2023-02-21T02:29:35.562Z,100054.44
2023-02-21T02:30:27.019Z,100057.53
2023-02-21T02:30:56.456Z,100053.88
2023-02-21T02:31:44.829Z,100059.19
2023-02-21T02:32:26.862Z,100056.06
2023-02-21T02:33:06.327Z,100054.25
2023-02-21T02:33:49.785Z,100051.75
2023-02-21T02:34:41.915Z,100051.75
2023-02-21T02:35:02.398Z,100053.69
2023-02-21T02:35:17.816Z,100055.72
2023-02-21T02:35:34.216Z,100052.41
2023-02-21T02:35:49.583Z,100059.03
2023-02-21T02:36:07.130Z,100056.53
2023-02-21T02:36:23.203Z,100051.19
2023-02-21T02:36:40.453Z,100053.88
2023-02-21T02:37:02.141Z,100053.88
2023-02-21T02:37:21.541Z,100049.34
2023-02-21T02:37:44.715Z,100045.06
2023-02-21T02:38:02.730Z,100051.59
2023-02-21T02:38:23.535Z,100041.75
2023-02-21T02:38:43.330Z,100043.59
2023-02-21T02:39:05.451Z,100046.44
2023-02-21T02:39:30.949Z,100046.44
2023-02-21T02:39:49.438Z,100046.44
2023-02-21T02:40:11.193Z,100047.25
2023-02-21T02:40:33.146Z,100050.72
2023-02-21T02:40:57.931Z,100040.47
2023-02-21T02:41:16.170Z,100047.44
2023-02-21T02:41:42.029Z,100048.44
2023-02-21T02:42:03.225Z,100055.41
2023-02-21T02:42:36.546Z,100047.81
2023-02-21T02:43:04.990Z,100053.13
2023-02-21T02:43:22.214Z,100047.16
2023-02-21T02:43:38.402Z,100044.50
2023-02-21T02:43:58.123Z,100051.66
2023-02-21T02:44:15.965Z,100046.53
2023-02-21T02:44:38.105Z,100045.69
2023-02-21T02:44:57.164Z,100047.53
2023-02-21T02:45:15.514Z,100039.28
2023-02-21T02:45:33.717Z,100033.59
2023-02-21T02:45:53.628Z,100039.94
2023-02-21T02:46:12.033Z,100044.22
2023-02-21T02:46:29.685Z,100039.94
2023-02-21T02:46:48.729Z,100040.75
2023-02-21T02:47:04.555Z,100050.84
2023-02-21T02:47:26.369Z,100030.53
2023-02-21T02:47:41.795Z,100041.19
2023-02-21T02:48:02.297Z,100041.19
2023-02-21T02:48:21.322Z,100029.88
2023-02-21T02:48:36.756Z,100026.63
2023-02-21T02:48:58.097Z,100036.88
2023-02-21T02:49:17.549Z,100043.84
2023-02-21T02:49:34.039Z,100033.19
2023-02-21T02:49:48.360Z,100038.34
2023-02-21T02:50:05.533Z,100024.38
2023-02-21T02:50:18.888Z,100040.38
2023-02-21T02:50:33.349Z,100037.88
2023-02-21T02:50:47.292Z,100039.56
2023-02-21T02:51:06.157Z,100037.88
2023-02-21T02:51:21.469Z,100029.06
2023-02-21T02:51:35.434Z,100037.88
2023-02-21T02:51:50.821Z,100036.41
2023-02-21T02:52:06.714Z,100034.59
2023-02-21T02:52:18.891Z,100035.59
2023-02-21T02:52:34.922Z,100043.41
2023-02-21T02:52:51.151Z,100039.09
2023-02-21T02:53:04.205Z,100037.28
2023-02-21T02:53:23.238Z,100037.28
2023-02-21T02:53:35.739Z,100034.59
2023-02-21T02:53:47.942Z,100031.09
2023-02-21T02:54:01.024Z,100033.97
2023-02-21T02:54:16.220Z,100028.16
2023-02-21T02:54:31.401Z,100032.13
2023-02-21T02:54:46.111Z,100031.47
2023-02-21T02:54:59.541Z,100045.44
2023-02-21T02:55:26.486Z,100032.13
2023-02-21T02:55:43.127Z,100033.75
2023-02-21T02:55:57.933Z,100032.13
2023-02-21T02:56:13.896Z,100031.09
2023-02-21T02:56:29.465Z,100041.94
2023-02-21T02:56:43.094Z,100037.28
2023-02-21T02:56:56.021Z,100033.75
2023-02-21T02:57:13.560Z,100040.09
2023-02-21T02:57:30.843Z,100039.09
2023-02-21T02:57:45.827Z,100033.09
2023-02-21T02:57:58.616Z,100036.41
2023-02-21T02:58:11.545Z,100034.59
2023-02-21T02:58:25.690Z,100035.59
2023-02-21T02:58:41.086Z,100021.19
2023-02-21T02:58:57.310Z,100032.13
2023-02-21T02:59:16.809Z,100038.72
2023-02-21T02:59:33.439Z,100026.06
2023-02-21T02:59:47.704Z,100039.00
2023-02-21T03:00:03.453Z,100037.16
2023-02-21T03:00:19.523Z,100030.19
2023-02-21T03:00:35.207Z,100034.06
2023-02-21T03:01:01.851Z,100032.56
2023-02-21T03:01:24.109Z,100023.75
2023-02-21T03:02:09.151Z,100036.50
2023-02-21T03:02:41.776Z,100020.25
2023-02-21T03:03:12.132Z,100039.16
2023-02-21T03:03:38.606Z,100022.28
2023-02-21T03:04:09.793Z,100030.34
2023-02-21T03:04:41.303Z,100031.56
2023-02-21T03:05:13.230Z,100030.91
2023-02-21T03:05:44.072Z,100022.38
2023-02-21T03:06:13.014Z,100029.81
2023-02-21T03:06:38.258Z,100040.47
2023-02-21T03:07:00.256Z,100035.31